Time;durP1;ratioP1;P1;durP2;ratioP2;P2;SDS_P1;SDS_P2;PMS_P1;PMS_P2;Temp;Humidity;BMP_temperature;BMP_pressure;BME280_temperature;BME280_humidity;BME280_pressure;Samples;Min_cycle;Max_cycle;Signal;HPM_P1;HPM_P2
2024/03/16 00:01:51;;;;;;;5.35;3.42;;;24.30;99.90;;;;;;5094453;28;20052;-44
2024/03/16 00:04:17;;;;;;;4.07;3.45;;;24.30;99.90;;;;;;5093265;28;20057;-44
2024/03/16 00:06:42;;;;;;;5.28;4.07;;;24.30;99.90;;;;;;5094718;28;20027;-45
2024/03/16 00:09:08;;;;;;;3.83;3.42;;;24.30;99.90;;;;;;5094424;28;20044;-45
2024/03/16 00:11:34;;;;;;;5.38;3.30;;;24.30;99.90;;;;;;5094559;28;20055;-46
2024/03/16 00:14:03;;;;;;;3.97;3.58;;;24.30;99.90;;;;;;5094546;28;20028;-44
2024/03/16 00:16:30;;;;;;;5.15;3.70;;;24.30;99.90;;;;;;5093265;28;20024;-45
2024/03/16 00:18:56;;;;;;;4.13;3.50;;;24.30;99.90;;;;;;5094782;28;20044;-45
2024/03/16 00:21:22;;;;;;;5.00;3.58;;;24.20;99.90;;;;;;5094368;28;20109;-44
2024/03/16 00:23:48;;;;;;;5.32;4.00;;;24.20;99.90;;;;;;5094372;28;20221;-49
2024/03/16 00:26:13;;;;;;;4.63;3.97;;;24.30;99.90;;;;;;5094095;28;20027;-46
2024/03/16 00:28:39;;;;;;;6.22;4.00;;;24.20;99.90;;;;;;5094068;28;20031;-44
2024/03/16 00:31:05;;;;;;;5.55;4.10;;;24.20;99.90;;;;;;5094224;28;20081;-44
2024/03/16 00:33:31;;;;;;;4.75;3.97;;;24.20;99.90;;;;;;5094170;28;20435;-45
2024/03/16 00:35:57;;;;;;;4.38;3.70;;;24.20;99.90;;;;;;5094255;28;20077;-44
2024/03/16 00:38:26;;;;;;;6.15;4.10;;;24.20;99.90;;;;;;5094119;28;20024;-44
2024/03/16 00:40:53;;;;;;;4.07;3.55;;;24.20;99.90;;;;;;5094007;28;20437;-45
2024/03/16 00:43:19;;;;;;;6.87;3.87;;;24.20;99.90;;;;;;5093942;28;20183;-45
2024/03/16 00:45:45;;;;;;;5.15;3.55;;;24.20;99.90;;;;;;5093872;28;20024;-44
2024/03/16 00:48:12;;;;;;;4.78;3.90;;;24.20;99.90;;;;;;5093771;28;20435;-44
2024/03/16 00:50:39;;;;;;;4.07;3.25;;;24.20;99.90;;;;;;5093601;28;20032;-44
2024/03/16 00:53:05;;;;;;;4.75;3.85;;;24.20;99.90;;;;;;5093814;28;20052;-44
2024/03/16 00:55:31;;;;;;;4.97;3.40;;;24.20;99.90;;;;;;5092420;28;20031;-44
2024/03/16 00:57:56;;;;;;;5.75;4.22;;;24.10;99.90;;;;;;5093842;28;20042;-44
2024/03/16 01:02:51;;;;;;;4.80;4.15;;;24.20;99.90;;;;;;5070645;28;20057;-57
2024/03/16 01:05:17;;;;;;;5.22;4.05;;;24.20;99.90;;;;;;5073229;28;20020;-56
2024/03/16 01:07:43;;;;;;;4.57;3.78;;;24.10;99.90;;;;;;5055290;28;20020;-56
2024/03/16 01:10:11;;;;;;;6.00;4.35;;;24.10;99.90;;;;;;5073310;28;20044;-57
2024/03/16 01:17:43;;;;;;;5.30;4.13;;;24.10;99.90;;;;;;5061228;23;20057;-45
2024/03/16 01:20:09;;;;;;;5.07;3.58;;;24.10;99.90;;;;;;5053170;28;20029;-46
2024/03/16 01:22:35;;;;;;;4.93;3.53;;;24.10;99.90;;;;;;5052994;28;20028;-45
2024/03/16 01:25:01;;;;;;;4.65;3.60;;;24.10;99.90;;;;;;5052580;28;20472;-44
2024/03/16 01:27:27;;;;;;;5.50;4.30;;;24.10;99.90;;;;;;5052807;28;20507;-44
2024/03/16 01:29:53;;;;;;;6.38;4.20;;;24.10;99.90;;;;;;5052713;28;20033;-44
2024/03/16 01:32:19;;;;;;;5.43;4.32;;;24.00;99.90;;;;;;5052766;28;20091;-44
2024/03/16 01:34:44;;;;;;;4.53;3.70;;;24.10;99.90;;;;;;5052651;28;20025;-44
2024/03/16 01:37:14;;;;;;;5.57;4.13;;;24.10;99.90;;;;;;5052886;28;20017;-45
2024/03/16 01:39:40;;;;;;;4.88;3.45;;;24.00;99.90;;;;;;5052886;28;20044;-44
2024/03/16 01:42:06;;;;;;;3.78;2.78;;;24.00;99.90;;;;;;5052642;28;20104;-45
2024/03/16 01:44:32;;;;;;;4.18;3.35;;;24.00;99.90;;;;;;5052479;28;20171;-44
2024/03/16 01:46:59;;;;;;;6.75;4.28;;;24.00;99.90;;;;;;5034690;28;20022;-43
2024/03/16 01:49:24;;;;;;;4.45;3.47;;;24.00;99.90;;;;;;5052374;28;20025;-44
2024/03/16 01:51:50;;;;;;;4.47;4.07;;;24.00;99.90;;;;;;5052537;28;20029;-45
2024/03/16 01:54:18;;;;;;;5.72;3.85;;;24.00;99.90;;;;;;5052523;28;20488;-45
2024/03/16 01:56:44;;;;;;;3.97;3.47;;;24.00;99.90;;;;;;5052333;28;20104;-45
2024/03/16 01:59:12;;;;;;;4.28;3.50;;;24.00;99.90;;;;;;5052578;28;20104;-45
2024/03/16 02:01:38;;;;;;;4.22;3.30;;;24.00;99.90;;;;;;5052252;28;20059;-45
2024/03/16 02:04:04;;;;;;;5.10;3.43;;;24.00;99.90;;;;;;5052133;28;20020;-45
2024/03/16 02:06:30;;;;;;;3.90;3.05;;;23.90;99.90;;;;;;5052229;28;20760;-44
2024/03/16 02:08:57;;;;;;;5.70;3.00;;;24.00;99.90;;;;;;5052025;28;20029;-45
2024/03/16 02:11:23;;;;;;;4.68;3.45;;;24.00;99.90;;;;;;5052276;28;20122;-45
2024/03/16 02:13:49;;;;;;;4.20;3.33;;;23.90;99.90;;;;;;5052178;28;20492;-45
2024/03/16 02:16:15;;;;;;;4.35;3.25;;;23.90;99.90;;;;;;5052523;28;20111;-44
2024/03/16 02:18:41;;;;;;;3.80;3.22;;;23.90;99.90;;;;;;5052406;28;20025;-45
2024/03/16 02:21:10;;;;;;;3.85;3.10;;;23.90;99.90;;;;;;5052057;28;20087;-45
2024/03/16 02:23:36;;;;;;;4.03;3.20;;;23.90;99.90;;;;;;5017166;28;20032;-44
2024/03/16 02:26:04;;;;;;;4.55;3.72;;;23.90;99.90;;;;;;5050683;28;20025;-45
2024/03/16 02:28:30;;;;;;;4.20;2.90;;;23.90;99.90;;;;;;5052095;28;20021;-44
2024/03/16 02:30:56;;;;;;;5.28;3.75;;;23.90;99.90;;;;;;5052019;28;20481;-45
2024/03/16 02:33:22;;;;;;;3.72;3.03;;;23.90;99.90;;;;;;5052103;28;20400;-45
2024/03/16 02:35:47;;;;;;;3.97;2.80;;;23.80;99.90;;;;;;5052053;28;20449;-45
2024/03/16 02:38:14;;;;;;;4.88;3.15;;;23.90;99.90;;;;;;5051963;28;20074;-45
2024/03/16 02:40:42;;;;;;;3.92;2.97;;;23.80;99.90;;;;;;5051999;28;20056;-45
2024/03/16 02:43:09;;;;;;;5.43;3.35;;;23.80;99.90;;;;;;5051864;28;20033;-46
2024/03/16 02:45:35;;;;;;;8.25;3.60;;;23.80;99.90;;;;;;5046451;28;20021;-45
2024/03/16 02:48:01;;;;;;;4.80;3.30;;;23.80;99.90;;;;;;5043455;28;20025;-46
2024/03/16 02:50:27;;;;;;;4.03;3.20;;;23.80;99.90;;;;;;5046009;28;20029;-46
2024/03/16 02:52:53;;;;;;;6.47;3.60;;;23.80;99.90;;;;;;5051284;28;20421;-46
2024/03/16 02:55:19;;;;;;;5.93;2.67;;;23.80;99.90;;;;;;5033832;28;20041;-46
2024/03/16 02:57:45;;;;;;;5.18;2.53;;;23.80;99.90;;;;;;5049125;28;20021;-46
2024/03/16 03:00:11;;;;;;;4.05;3.17;;;23.80;99.90;;;;;;5051007;28;20033;-46
2024/03/16 03:02:39;;;;;;;4.38;2.95;;;23.80;99.90;;;;;;5049926;28;20025;-46
2024/03/16 03:05:10;;;;;;;6.30;2.70;;;23.80;99.90;;;;;;5050671;28;20100;-45
2024/03/16 03:07:38;;;;;;;7.05;3.30;;;23.80;99.90;;;;;;5051226;28;20534;-45
2024/03/16 03:10:06;;;;;;;8.23;3.85;;;23.80;99.90;;;;;;5048403;28;20036;-46
2024/03/16 03:12:32;;;;;;;6.90;2.90;;;23.80;99.90;;;;;;5039804;28;20472;-45
2024/03/16 03:14:58;;;;;;;5.20;3.25;;;23.80;99.90;;;;;;5032825;28;20503;-45
2024/03/16 03:17:25;;;;;;;4.97;3.10;;;23.80;99.90;;;;;;5031548;28;20052;-46
2024/03/16 03:19:50;;;;;;;5.18;3.10;;;23.80;99.90;;;;;;5050680;28;20542;-45
2024/03/16 03:22:16;;;;;;;3.42;2.63;;;23.80;99.90;;;;;;5050871;28;20029;-45
2024/03/16 03:24:42;;;;;;;7.50;3.10;;;23.80;99.90;;;;;;5031938;28;20484;-46
2024/03/16 03:27:08;;;;;;;5.38;3.33;;;23.80;99.90;;;;;;5039646;28;20038;-44
2024/03/16 03:29:33;;;;;;;4.07;2.97;;;23.80;99.90;;;;;;5027354;28;20029;-44
2024/03/16 03:31:59;;;;;;;5.45;3.10;;;23.80;99.90;;;;;;5050878;28;20036;-44
2024/03/16 03:34:25;;;;;;;4.38;3.08;;;23.80;99.90;;;;;;5050163;28;20014;-44
2024/03/16 03:36:51;;;;;;;4.55;2.40;;;23.80;99.90;;;;;;5054518;28;20029;-44
2024/03/16 03:39:17;;;;;;;4.35;2.85;;;23.80;99.90;;;;;;5048952;28;20499;-45
2024/03/16 03:41:43;;;;;;;3.72;2.95;;;23.70;99.90;;;;;;5054551;28;20017;-45
2024/03/16 03:44:20;;;;;;;6.78;3.08;;;23.80;99.90;;;;;;5054419;28;20515;-44
2024/03/16 03:46:50;;;;;;;5.13;3.55;;;23.80;99.90;;;;;;5053857;28;20536;-44
2024/03/16 03:49:26;;;;;;;5.93;2.67;;;23.70;99.90;;;;;;5053120;28;20090;-45
2024/03/16 03:51:57;;;;;;;5.47;3.22;;;23.70;99.90;;;;;;5054267;28;20029;-45
2024/03/16 03:54:23;;;;;;;6.50;3.03;;;23.70;99.90;;;;;;5054385;28;20562;-44
2024/03/16 03:56:49;;;;;;;4.80;3.03;;;23.70;99.90;;;;;;5054758;28;20029;-44
2024/03/16 03:59:15;;;;;;;4.22;2.78;;;23.70;99.90;;;;;;5053694;28;20503;-45
2024/03/16 04:01:41;;;;;;;4.63;3.10;;;23.70;99.90;;;;;;5052372;28;20032;-46
2024/03/16 04:04:06;;;;;;;3.33;2.63;;;23.70;99.90;;;;;;5053779;28;20025;-45
2024/03/16 04:06:32;;;;;;;4.70;3.35;;;23.70;99.90;;;;;;5054451;28;20031;-46
2024/03/16 04:08:58;;;;;;;3.83;3.13;;;23.60;99.90;;;;;;5054227;28;20025;-45
2024/03/16 04:11:24;;;;;;;4.55;2.88;;;23.70;99.90;;;;;;5054288;28;20039;-46
2024/03/16 04:13:50;;;;;;;6.30;3.28;;;23.60;99.90;;;;;;5054495;28;20078;-45
2024/03/16 04:16:16;;;;;;;5.53;2.90;;;23.60;99.90;;;;;;5054693;28;20071;-45
2024/03/16 04:18:41;;;;;;;4.57;2.58;;;23.60;99.90;;;;;;5054139;28;20025;-45
2024/03/16 04:21:08;;;;;;;4.40;3.00;;;23.60;99.90;;;;;;5046442;28;20088;-45
2024/03/16 04:23:34;;;;;;;4.82;2.88;;;23.50;99.90;;;;;;5044908;28;20512;-45
2024/03/16 04:26:00;;;;;;;4.82;2.88;;;23.50;99.90;;;;;;5033925;28;20053;-45
2024/03/16 04:28:25;;;;;;;3.72;2.83;;;23.50;99.90;;;;;;5034067;28;20062;-45
2024/03/16 04:30:51;;;;;;;5.78;2.90;;;23.50;99.90;;;;;;5033665;28;20056;-43
2024/03/16 04:33:17;;;;;;;5.53;3.03;;;23.50;99.90;;;;;;5034284;28;20025;-44
2024/03/16 04:35:47;;;;;;;4.43;2.80;;;23.50;99.90;;;;;;5033817;28;20044;-44
2024/03/16 04:38:13;;;;;;;5.28;3.40;;;23.50;99.90;;;;;;5033749;28;20029;-45
2024/03/16 04:40:39;;;;;;;4.07;2.70;;;23.50;99.90;;;;;;5033866;28;20033;-45
2024/03/16 04:43:04;;;;;;;6.20;3.20;;;23.50;99.90;;;;;;5033642;28;20025;-45
2024/03/16 04:45:30;;;;;;;5.63;2.97;;;23.50;99.90;;;;;;5033386;28;20033;-45
2024/03/16 04:47:56;;;;;;;4.28;2.95;;;23.50;99.90;;;;;;5033871;28;20025;-45
2024/03/16 04:50:24;;;;;;;3.78;2.50;;;23.40;99.90;;;;;;5033517;28;20041;-45
2024/03/16 04:52:49;;;;;;;5.88;2.80;;;23.50;99.90;;;;;;5008324;28;20024;-45
2024/03/16 04:55:15;;;;;;;4.60;3.20;;;23.40;99.90;;;;;;5053033;28;20029;-45
2024/03/16 04:57:41;;;;;;;3.25;2.60;;;23.40;99.90;;;;;;5018828;28;20013;-44
2024/03/16 05:00:11;;;;;;;5.10;3.10;;;23.40;99.90;;;;;;5052073;28;20048;-45
2024/03/16 05:02:37;;;;;;;4.35;3.15;;;23.40;99.90;;;;;;5052782;28;20021;-45
2024/03/16 05:05:06;;;;;;;7.47;3.90;;;23.40;99.90;;;;;;5052079;28;20503;-45
2024/03/16 05:07:32;;;;;;;4.13;2.83;;;23.40;99.90;;;;;;5035972;28;20021;-45
2024/03/16 05:09:58;;;;;;;6.22;3.00;;;23.30;99.90;;;;;;5035212;28;20072;-45
2024/03/16 05:12:25;;;;;;;4.95;2.75;;;23.30;99.90;;;;;;5053220;28;20063;-46
2024/03/16 05:14:51;;;;;;;4.70;3.03;;;23.30;99.90;;;;;;5053490;28;20488;-45
2024/03/16 05:17:16;;;;;;;3.88;2.88;;;23.30;99.90;;;;;;5031775;28;20041;-45
2024/03/16 05:19:42;;;;;;;6.25;3.22;;;23.30;99.90;;;;;;5048452;28;20422;-45
2024/03/16 05:22:08;;;;;;;4.65;2.95;;;23.30;99.90;;;;;;5033135;28;20040;-45
2024/03/16 05:24:34;;;;;;;4.35;2.72;;;23.30;99.90;;;;;;5032991;28;20029;-45
2024/03/16 05:27:00;;;;;;;5.25;3.50;;;23.30;99.90;;;;;;5033092;28;20029;-45
2024/03/16 05:29:25;;;;;;;6.72;2.53;;;23.30;99.90;;;;;;5048421;28;20038;-45
2024/03/16 05:31:59;;;;;;;4.18;3.08;;;23.30;99.90;;;;;;5033198;28;20032;-46
2024/03/16 05:34:26;;;;;;;4.00;3.05;;;23.20;99.90;;;;;;5033118;28;20037;-45
2024/03/16 05:36:52;;;;;;;5.07;3.00;;;23.30;99.90;;;;;;5031806;28;20079;-46
2024/03/16 05:39:17;;;;;;;7.95;3.30;;;23.30;99.90;;;;;;5032735;28;20025;-45
2024/03/16 05:41:43;;;;;;;4.28;2.97;;;23.30;99.90;;;;;;5032828;28;20022;-45
2024/03/16 05:44:10;;;;;;;3.55;2.40;;;23.20;99.90;;;;;;5031392;28;20372;-45
2024/03/16 05:46:36;;;;;;;3.80;3.13;;;23.20;99.90;;;;;;5032651;28;20026;-45
2024/03/16 05:49:02;;;;;;;4.57;3.05;;;23.20;99.90;;;;;;5032561;28;20064;-44
2024/03/16 05:51:28;;;;;;;4.78;2.80;;;23.20;99.90;;;;;;5032681;28;20065;-44
2024/03/16 05:53:55;;;;;;;4.20;2.90;;;23.20;99.90;;;;;;5032837;28;20022;-45
2024/03/16 05:56:21;;;;;;;7.95;3.15;;;23.20;99.90;;;;;;5032661;28;20092;-44
2024/03/16 05:58:48;;;;;;;6.97;3.33;;;23.20;99.90;;;;;;5031844;28;20067;-44
2024/03/16 06:01:14;;;;;;;3.83;2.78;;;23.20;99.90;;;;;;5032623;28;20295;-45
2024/03/16 06:03:39;;;;;;;5.07;2.78;;;23.20;99.90;;;;;;5032598;28;20053;-45
2024/03/16 06:06:05;;;;;;;5.78;3.00;;;23.20;99.90;;;;;;5031288;28;20047;-45
2024/03/16 06:08:32;;;;;;;2.80;2.50;;;23.20;99.90;;;;;;5032327;28;20021;-44
2024/03/16 06:10:58;;;;;;;6.85;3.25;;;23.20;99.90;;;;;;5032337;28;20029;-45
2024/03/16 06:13:24;;;;;;;3.67;2.78;;;23.20;99.90;;;;;;5048018;28;20121;-52
2024/03/16 06:15:50;;;;;;;5.03;2.97;;;23.20;99.90;;;;;;5032274;28;20025;-45
2024/03/16 06:18:17;;;;;;;3.08;2.67;;;23.10;99.90;;;;;;5052151;28;20021;-45
2024/03/16 06:20:43;;;;;;;6.05;2.90;;;23.20;99.90;;;;;;5052141;28;20017;-45
2024/03/16 06:23:09;;;;;;;6.45;3.05;;;23.10;99.90;;;;;;5052116;28;20082;-46
2024/03/16 06:25:46;;;;;;;4.38;2.97;;;23.20;99.90;;;;;;5052164;28;20021;-45
2024/03/16 06:28:21;;;;;;;;;;;23.10;99.90;;;;;;5052487;28;20020;-46
2024/03/16 06:30:55;;;;;;;5.75;3.03;;;23.10;99.90;;;;;;5052021;28;19912;-45
2024/03/16 06:33:29;;;;;;;3.38;2.40;;;23.10;99.90;;;;;;5052089;28;20028;-45
2024/03/16 06:35:55;;;;;;;4.50;3.08;;;23.10;99.90;;;;;;5052162;28;20607;-45
2024/03/16 06:38:21;;;;;;;4.30;2.63;;;23.10;99.90;;;;;;5052015;28;20100;-45
2024/03/16 06:40:48;;;;;;;5.25;2.60;;;23.10;99.90;;;;;;5051899;28;20093;-46
2024/03/16 06:43:14;;;;;;;4.47;3.05;;;23.10;99.90;;;;;;5052004;28;20430;-45
2024/03/16 06:45:39;;;;;;;2.88;2.53;;;23.10;99.90;;;;;;5051805;28;20096;-45
2024/03/16 06:48:06;;;;;;;5.25;2.63;;;23.10;99.90;;;;;;5051858;28;20033;-46
2024/03/16 06:50:31;;;;;;;5.18;2.92;;;23.00;99.90;;;;;;5051762;28;20044;-45
2024/03/16 06:52:59;;;;;;;4.15;2.78;;;23.10;99.90;;;;;;5052107;28;20028;-45
2024/03/16 06:55:25;;;;;;;3.33;2.65;;;23.00;99.90;;;;;;5051818;28;20036;-46
2024/03/16 06:57:51;;;;;;;3.08;2.50;;;23.00;99.90;;;;;;5051826;28;20127;-45
2024/03/16 07:00:17;;;;;;;4.47;2.83;;;23.00;99.90;;;;;;5051695;28;20087;-45
2024/03/16 07:02:43;;;;;;;2.55;2.08;;;23.00;99.90;;;;;;5051479;28;20021;-45
2024/03/16 07:05:09;;;;;;;3.78;2.90;;;23.00;99.90;;;;;;5051626;28;20040;-44
2024/03/16 07:07:35;;;;;;;5.93;2.78;;;23.00;99.90;;;;;;5033776;28;20120;-45
2024/03/16 07:10:05;;;;;;;3.75;3.10;;;23.00;99.90;;;;;;5036010;28;20119;-45
2024/03/16 07:12:32;;;;;;;6.25;3.13;;;23.10;99.90;;;;;;5055592;28;20024;-45
2024/03/16 07:14:57;;;;;;;4.60;3.00;;;23.00;99.90;;;;;;5055650;28;20056;-45
2024/03/16 07:17:26;;;;;;;6.47;3.65;;;23.10;99.90;;;;;;5037177;28;20079;-45
2024/03/16 07:19:53;;;;;;;4.47;2.83;;;23.10;99.90;;;;;;5055252;28;20079;-45
2024/03/16 07:22:18;;;;;;;6.60;3.47;;;23.10;99.90;;;;;;5020959;28;20060;-45
2024/03/16 07:24:44;;;;;;;4.20;3.28;;;23.10;99.90;;;;;;5055330;28;20056;-45
2024/03/16 07:27:11;;;;;;;4.85;3.22;;;23.00;99.90;;;;;;5055314;28;20404;-45
2024/03/16 07:29:37;;;;;;;4.93;2.90;;;23.10;99.90;;;;;;5037239;28;20389;-46
2024/03/16 07:32:02;;;;;;;4.70;3.15;;;23.10;99.90;;;;;;5036995;28;20029;-45
2024/03/16 07:34:28;;;;;;;3.42;2.75;;;23.10;99.90;;;;;;5037280;28;20057;-44
2024/03/16 07:36:56;;;;;;;4.72;3.40;;;23.10;99.90;;;;;;5054992;28;20025;-44
2024/03/16 07:39:22;;;;;;;4.45;2.60;;;23.10;99.90;;;;;;5054984;28;20025;-43
2024/03/16 07:41:48;;;;;;;5.13;3.20;;;23.10;99.90;;;;;;5054920;28;20024;-43
2024/03/16 07:44:14;;;;;;;2.90;2.53;;;23.10;99.90;;;;;;5054893;28;20335;-43
2024/03/16 07:46:40;;;;;;;4.85;2.60;;;23.10;99.90;;;;;;5054632;28;20159;-44
2024/03/16 07:49:06;;;;;;;6.57;3.17;;;23.10;99.90;;;;;;5036840;28;20060;-44
2024/03/16 07:51:31;;;;;;;5.00;2.70;;;23.10;99.90;;;;;;5055055;28;20040;-44
2024/03/16 07:53:58;;;;;;;6.07;2.85;;;23.10;99.90;;;;;;5054806;28;20535;-43
2024/03/16 07:56:24;;;;;;;4.70;3.28;;;23.10;99.90;;;;;;5054736;28;20067;-44
2024/03/16 07:58:50;;;;;;;7.00;3.35;;;23.10;99.90;;;;;;5036686;28;20025;-44
2024/03/16 08:01:16;;;;;;;4.00;2.95;;;23.20;99.90;;;;;;5054428;28;20025;-44
2024/03/16 08:03:42;;;;;;;5.47;3.40;;;23.20;99.90;;;;;;5054575;28;20100;-44
2024/03/16 08:06:08;;;;;;;4.82;2.60;;;23.20;99.90;;;;;;5036548;28;20025;-44
2024/03/16 08:08:34;;;;;;;6.13;3.20;;;23.20;99.90;;;;;;5054569;28;20154;-45
2024/03/16 08:11:00;;;;;;;4.47;2.90;;;23.20;99.90;;;;;;5054372;28;20067;-45
2024/03/16 08:13:26;;;;;;;4.00;3.33;;;23.20;99.90;;;;;;5054197;28;20044;-45
2024/03/16 08:15:52;;;;;;;4.07;3.30;;;23.20;99.90;;;;;;5054071;28;20025;-45
2024/03/16 08:18:18;;;;;;;4.28;2.90;;;23.20;99.90;;;;;;5054136;28;20086;-45
2024/03/16 08:20:44;;;;;;;4.10;2.88;;;23.20;99.90;;;;;;5053524;28;20104;-44
2024/03/16 08:23:10;;;;;;;4.32;3.50;;;23.20;99.90;;;;;;5053999;28;20421;-44
2024/03/16 08:25:35;;;;;;;6.03;3.90;;;23.20;99.90;;;;;;5054129;28;20021;-44
2024/03/16 08:28:01;;;;;;;6.95;2.97;;;23.20;99.90;;;;;;5054265;28;20473;-45
2024/03/16 08:30:27;;;;;;;4.43;3.35;;;23.20;99.90;;;;;;5036012;28;20390;-45
2024/03/16 08:32:54;;;;;;;4.75;3.38;;;23.20;99.90;;;;;;5053940;28;20017;-45
2024/03/16 08:35:20;;;;;;;4.90;2.88;;;23.20;99.90;;;;;;5054011;28;20027;-44
2024/03/16 08:37:46;;;;;;;4.82;3.08;;;23.20;99.90;;;;;;5053943;28;20025;-45
2024/03/16 08:40:12;;;;;;;3.25;2.63;;;23.20;99.90;;;;;;5053852;28;20575;-44
2024/03/16 08:42:41;;;;;;;6.70;3.20;;;23.30;99.90;;;;;;5035912;28;20021;-45
2024/03/16 08:45:07;;;;;;;3.88;3.05;;;23.30;99.90;;;;;;5053761;28;20047;-45
2024/03/16 08:47:37;;;;;;;5.65;3.58;;;23.30;99.90;;;;;;5053735;28;20100;-44
2024/03/16 08:50:04;;;;;;;5.40;3.53;;;23.30;99.90;;;;;;5053764;28;20116;-45
2024/03/16 08:52:31;;;;;;;5.03;2.97;;;23.30;99.90;;;;;;5035820;28;20027;-44
2024/03/16 08:54:57;;;;;;;6.45;2.90;;;23.30;99.90;;;;;;5053654;28;20029;-45
2024/03/16 08:57:23;;;;;;;4.28;3.35;;;23.30;99.90;;;;;;5053455;28;20021;-45
2024/03/16 08:59:50;;;;;;;3.60;3.00;;;23.30;99.90;;;;;;5053452;28;20083;-44
2024/03/16 09:02:19;;;;;;;5.40;3.50;;;23.30;99.90;;;;;;5053412;28;20477;-45
2024/03/16 09:04:46;;;;;;;5.25;2.85;;;23.30;99.90;;;;;;5053361;28;20036;-44
2024/03/16 09:07:12;;;;;;;5.45;3.38;;;23.30;99.90;;;;;;5053180;28;20021;-44
2024/03/16 09:09:38;;;;;;;4.32;3.10;;;23.30;99.90;;;;;;5053124;28;20431;-44
2024/03/16 09:12:04;;;;;;;3.15;2.65;;;23.30;99.90;;;;;;5035461;28;20158;-44
2024/03/16 09:14:35;;;;;;;4.60;3.17;;;23.30;99.90;;;;;;5053147;28;20033;-45
2024/03/16 09:17:01;;;;;;;4.15;3.03;;;23.30;99.90;;;;;;5052872;28;20041;-44
2024/03/16 09:19:27;;;;;;;4.07;2.88;;;23.30;99.90;;;;;;5053045;28;20439;-44
2024/03/16 09:21:53;;;;;;;5.85;3.10;;;23.30;99.90;;;;;;5052975;28;20021;-44
2024/03/16 09:24:19;;;;;;;4.38;2.92;;;23.30;99.90;;;;;;5052925;28;20488;-44
2024/03/16 09:26:45;;;;;;;3.97;2.53;;;23.30;99.90;;;;;;5052800;28;20036;-44
2024/03/16 09:29:11;;;;;;;3.33;2.80;;;23.30;99.90;;;;;;5052630;28;20025;-46
2024/03/16 09:31:37;;;;;;;4.57;3.25;;;23.30;99.90;;;;;;5053106;28;20033;-45
2024/03/16 09:34:04;;;;;;;4.18;3.00;;;23.40;99.90;;;;;;5052185;28;20028;-45
2024/03/16 09:36:29;;;;;;;3.45;2.80;;;23.30;99.90;;;;;;5052781;28;20039;-45
2024/03/16 09:38:55;;;;;;;6.18;3.60;;;23.40;99.90;;;;;;5034645;28;20476;-44
2024/03/16 09:41:22;;;;;;;6.00;2.80;;;23.40;99.90;;;;;;5052664;28;20028;-45
2024/03/16 09:43:48;;;;;;;4.05;2.72;;;23.40;99.90;;;;;;5052693;28;20029;-45
2024/03/16 09:46:14;;;;;;;3.65;3.10;;;23.40;99.90;;;;;;5052384;28;20028;-45
2024/03/16 09:48:41;;;;;;;6.88;2.78;;;23.40;99.90;;;;;;5052869;28;20025;-45
2024/03/16 09:51:12;;;;;;;3.22;2.63;;;23.40;99.90;;;;;;5052627;28;20107;-45
2024/03/16 09:53:38;;;;;;;4.78;3.28;;;23.50;99.90;;;;;;5034798;28;20035;-45
2024/03/16 09:56:23;;;;;;;3.70;3.17;;;23.50;99.90;;;;;;5052692;28;20025;-45
2024/03/16 09:58:50;;;;;;;8.10;3.05;;;23.50;99.90;;;;;;5052460;28;20060;-45
2024/03/16 10:01:17;;;;;;;4.78;3.05;;;23.50;99.90;;;;;;5052449;28;20056;-45
2024/03/16 10:03:44;;;;;;;;;;;23.50;99.90;;;;;;5034907;28;20025;-44
2024/03/16 10:06:15;;;;;;;6.03;3.40;;;23.60;99.90;;;;;;5052191;28;19904;-44
2024/03/16 10:08:42;;;;;;;6.38;3.15;;;23.60;99.90;;;;;;5052254;28;20045;-45
2024/03/16 10:11:12;;;;;;;7.72;3.85;;;23.60;99.90;;;;;;5052603;28;20060;-45
2024/03/16 10:13:50;;;;;;;3.78;2.65;;;23.70;99.90;;;;;;5052400;28;20029;-45
2024/03/16 10:16:16;;;;;;;5.53;3.00;;;23.70;99.90;;;;;;5052006;28;20045;-46
2024/03/16 10:18:43;;;;;;;4.28;2.92;;;23.60;99.90;;;;;;5052075;28;20379;-46
2024/03/16 10:21:11;;;;;;;4.10;3.03;;;23.70;99.90;;;;;;5052336;28;20021;-46
2024/03/16 10:23:37;;;;;;;;;;;23.70;99.90;;;;;;5035006;28;20044;-46
2024/03/16 10:26:08;;;;;;;3.55;3.03;;;23.80;99.90;;;;;;5052099;28;19904;-45
2024/03/16 10:28:35;;;;;;;4.55;3.45;;;23.80;99.90;;;;;;5051837;28;20040;-45
2024/03/16 10:31:04;;;;;;;3.60;3.00;;;23.80;99.90;;;;;;5051981;28;20040;-46
2024/03/16 10:33:36;;;;;;;7.60;3.42;;;23.80;99.90;;;;;;5052011;28;20017;-46
2024/03/16 10:36:02;;;;;;;5.25;3.05;;;23.80;99.90;;;;;;5052103;28;20031;-46
2024/03/16 10:38:30;;;;;;;3.83;2.92;;;23.80;99.90;;;;;;5051981;28;20033;-45
2024/03/16 10:41:04;;;;;;;3.78;3.30;;;23.90;99.90;;;;;;5051897;28;20104;-46
2024/03/16 10:43:32;;;;;;;6.25;3.35;;;23.90;99.90;;;;;;5033908;28;20079;-46
2024/03/16 10:45:58;;;;;;;4.28;3.05;;;23.90;99.90;;;;;;5055938;28;20376;-46
2024/03/16 10:48:25;;;;;;;5.80;3.17;;;23.90;99.90;;;;;;5055956;28;20108;-45
2024/03/16 10:50:53;;;;;;;7.53;3.20;;;24.00;99.90;;;;;;5055782;28;20040;-46
2024/03/16 10:53:20;;;;;;;5.30;3.20;;;24.00;99.90;;;;;;5037968;28;20025;-46
2024/03/16 10:55:47;;;;;;;6.32;3.60;;;24.00;99.90;;;;;;5055897;28;20021;-46
2024/03/16 10:58:23;;;;;;;6.25;3.50;;;24.00;99.90;;;;;;5055788;28;20468;-45
2024/03/16 11:00:50;;;;;;;4.55;3.67;;;24.00;99.90;;;;;;5055856;28;20116;-46
2024/03/16 11:03:27;;;;;;;8.23;4.05;;;24.10;99.90;;;;;;5055711;28;20021;-46
2024/03/16 11:06:09;;;;;;;;;;;24.10;99.90;;;;;;5056117;28;20473;-45
2024/03/16 11:08:42;;;;;;;7.32;3.70;;;24.10;99.90;;;;;;5038665;28;19904;-45
2024/03/16 11:11:15;;;;;;;4.75;3.78;;;24.20;99.90;;;;;;5055503;28;20036;-44
2024/03/16 11:13:56;;;;;;;8.25;4.40;;;24.20;99.90;;;;;;5055786;28;20036;-45
2024/03/16 11:16:29;;;;;;;5.25;3.70;;;24.20;99.90;;;;;;5055091;28;20140;-45
2024/03/16 11:18:59;;;;;;;5.68;3.92;;;24.20;99.90;;;;;;5055372;28;20021;-45
2024/03/16 11:21:33;;;;;;;6.18;4.20;;;24.20;99.90;;;;;;5055339;28;20029;-45
2024/03/16 11:24:05;;;;;;;6.55;3.78;;;24.20;99.90;;;;;;5037378;28;20029;-45
2024/03/16 11:26:39;;;;;;;5.90;4.25;;;24.20;99.90;;;;;;5055180;28;20032;-45
2024/03/16 11:29:15;;;;;;;5.05;3.90;;;24.30;99.90;;;;;;5055089;28;20036;-44
2024/03/16 11:31:57;;;;;;;9.13;4.47;;;24.30;99.90;;;;;;5055298;28;20164;-45
2024/03/16 11:34:25;;;;;;;6.30;4.45;;;24.40;99.90;;;;;;5054884;28;20082;-45
2024/03/16 11:36:55;;;;;;;8.23;4.78;;;24.40;99.90;;;;;;5055127;28;20385;-44
2024/03/16 11:39:27;;;;;;;5.07;4.22;;;24.40;99.90;;;;;;5054900;28;20025;-46
2024/03/16 11:42:05;;;;;;;6.60;4.35;;;24.40;99.90;;;;;;5054869;28;20017;-46
2024/03/16 11:44:32;;;;;;;6.43;4.47;;;24.40;99.90;;;;;;5055027;28;20025;-45
2024/03/16 11:46:58;;;;;;;6.03;4.70;;;24.50;99.90;;;;;;5055061;28;20094;-46
2024/03/16 11:49:24;;;;;;;5.63;4.43;;;24.50;99.90;;;;;;5054556;28;20132;-45
2024/03/16 11:51:56;;;;;;;8.27;4.65;;;24.50;99.90;;;;;;5036636;28;20402;-44
2024/03/16 11:54:25;;;;;;;6.40;4.50;;;24.50;99.90;;;;;;5054170;28;20017;-44
2024/03/16 11:56:52;;;;;;;7.88;5.10;;;24.60;99.90;;;;;;5053594;28;20033;-45
2024/03/16 11:59:19;;;;;;;7.50;4.53;;;24.60;99.90;;;;;;5054113;28;20031;-45
2024/03/16 12:01:54;;;;;;;5.88;4.72;;;24.60;99.90;;;;;;5018876;28;20029;-45
2024/03/16 12:04:22;;;;;;;7.00;5.03;;;24.60;99.90;;;;;;5042243;28;20036;-46
2024/03/16 12:06:53;;;;;;;7.25;5.47;;;24.70;99.90;;;;;;5044292;28;20486;-46
2024/03/16 12:09:30;;;;;;;9.18;5.53;;;24.60;99.90;;;;;;5026935;28;20033;-46
2024/03/16 12:12:00;;;;;;;7.18;5.60;;;24.70;99.90;;;;;;5044791;28;20040;-44
2024/03/16 12:14:26;;;;;;;7.45;5.25;;;24.70;99.90;;;;;;5046318;28;20474;-44
2024/03/16 12:16:53;;;;;;;9.48;5.60;;;24.70;99.90;;;;;;5042533;28;20057;-45
2024/03/16 12:19:19;;;;;;;;;;;24.70;99.90;;;;;;5044488;28;20040;-45
2024/03/16 12:21:46;;;;;;;8.48;5.68;;;24.70;99.90;;;;;;5044282;28;19948;-45
2024/03/16 12:24:14;;;;;;;8.70;5.28;;;24.80;99.90;;;;;;5042812;28;20064;-45
2024/03/16 12:26:45;;;;;;;7.53;5.80;;;24.80;99.90;;;;;;5036100;28;20026;-45
2024/03/16 12:29:18;;;;;;;9.70;5.85;;;24.80;99.90;;;;;;5036644;28;20017;-45
2024/03/16 12:31:45;;;;;;;8.43;5.75;;;24.80;99.90;;;;;;5000598;28;20393;-45
2024/03/16 12:34:14;;;;;;;12.23;6.47;;;24.80;99.90;;;;;;5033926;28;20094;-45
2024/03/16 12:36:41;;;;;;;14.25;6.82;;;24.80;99.90;;;;;;5034229;28;20538;-44
2024/03/16 12:39:08;;;;;;;11.00;6.47;;;24.90;99.90;;;;;;5044775;28;20064;-43
2024/03/16 12:41:39;;;;;;;12.93;6.95;;;24.90;99.90;;;;;;5024417;28;20028;-43
2024/03/16 12:44:04;;;;;;;11.27;6.68;;;24.90;99.90;;;;;;5029717;28;20026;-44
2024/03/16 12:46:33;;;;;;;10.13;6.55;;;25.00;99.90;;;;;;5043072;28;20017;-44
2024/03/16 12:48:59;;;;;;;9.15;6.53;;;25.00;99.90;;;;;;5010548;28;20108;-44
2024/03/16 12:51:25;;;;;;;10.32;7.53;;;25.00;99.90;;;;;;5041404;28;20160;-45
2024/03/16 12:53:51;;;;;;;13.98;7.65;;;25.00;99.90;;;;;;5016394;28;20481;-46
2024/03/16 12:56:18;;;;;;;13.57;7.60;;;25.00;99.90;;;;;;5033741;28;20036;-45